sensor_id;sensor_type;location;lat;lon;timestamp;P1;durP1;ratioP1;P2;durP2;ratioP2
8580;SDS011;4328;48.622;9.230;2022-09-21T00:01:43;3.10;;;2.17;;
8580;SDS011;4328;48.622;9.230;2022-09-21T00:04:09;3.07;;;2.33;;
8580;SDS011;4328;48.622;9.230;2022-09-21T00:06:36;3.27;;;2.43;;
8580;SDS011;4328;48.622;9.230;2022-09-21T00:09:03;4.23;;;2.33;;
8580;SDS011;4328;48.622;9.230;2022-09-21T00:11:32;3.37;;;2.40;;
8580;SDS011;4328;48.622;9.230;2022-09-21T00:14:01;3.57;;;2.20;;
8580;SDS011;4328;48.622;9.230;2022-09-21T00:16:31;2.20;;;2.00;;
8580;SDS011;4328;48.622;9.230;2022-09-21T00:18:59;3.80;;;2.30;;
8580;SDS011;4328;48.622;9.230;2022-09-21T00:21:26;3.90;;;2.43;;
8580;SDS011;4328;48.622;9.230;2022-09-21T00:23:53;3.47;;;2.47;;
8580;SDS011;4328;48.622;9.230;2022-09-21T00:26:20;4.60;;;2.47;;
8580;SDS011;4328;48.622;9.230;2022-09-21T00:28:51;2.50;;;2.30;;
8580;SDS011;4328;48.622;9.230;2022-09-21T00:31:19;3.33;;;2.33;;
8580;SDS011;4328;48.622;9.230;2022-09-21T00:33:46;2.70;;;2.10;;
8580;SDS011;4328;48.622;9.230;2022-09-21T00:36:15;2.77;;;2.00;;
8580;SDS011;4328;48.622;9.230;2022-09-21T00:38:43;2.70;;;2.10;;
8580;SDS011;4328;48.622;9.230;2022-09-21T00:41:14;2.53;;;2.33;;
8580;SDS011;4328;48.622;9.230;2022-09-21T00:43:42;2.50;;;2.30;;
8580;SDS011;4328;48.622;9.230;2022-09-21T00:46:30;2.87;;;2.57;;
8580;SDS011;4328;48.622;9.230;2022-09-21T00:48:57;4.43;;;2.40;;
8580;SDS011;4328;48.622;9.230;2022-09-21T00:51:25;3.90;;;2.57;;
8580;SDS011;4328;48.622;9.230;2022-09-21T00:53:52;2.60;;;2.40;;
8580;SDS011;4328;48.622;9.230;2022-09-21T00:56:24;2.77;;;2.40;;
8580;SDS011;4328;48.622;9.230;2022-09-21T00:58:51;3.00;;;2.30;;
8580;SDS011;4328;48.622;9.230;2022-09-21T01:01:20;2.37;;;2.20;;
8580;SDS011;4328;48.622;9.230;2022-09-21T01:03:49;3.50;;;2.70;;
8580;SDS011;4328;48.622;9.230;2022-09-21T01:06:18;2.60;;;2.40;;
8580;SDS011;4328;48.622;9.230;2022-09-21T01:08:48;2.83;;;2.50;;
8580;SDS011;4328;48.622;9.230;2022-09-21T01:11:24;2.60;;;2.40;;
8580;SDS011;4328;48.622;9.230;2022-09-21T01:14:01;2.53;;;2.33;;
8580;SDS011;4328;48.622;9.230;2022-09-21T01:16:40;6.93;;;2.30;;
8580;SDS011;4328;48.622;9.230;2022-09-21T01:19:30;3.33;;;2.73;;
8580;SDS011;4328;48.622;9.230;2022-09-21T01:22:12;2.60;;;2.40;;
8580;SDS011;4328;48.622;9.230;2022-09-21T01:24:51;2.63;;;2.10;;
8580;SDS011;4328;48.622;9.230;2022-09-21T01:27:32;3.83;;;2.20;;
8580;SDS011;4328;48.622;9.230;2022-09-21T01:30:10;4.67;;;2.67;;
8580;SDS011;4328;48.622;9.230;2022-09-21T01:32:40;7.80;;;2.70;;
8580;SDS011;4328;48.622;9.230;2022-09-21T01:35:10;3.67;;;2.70;;
8580;SDS011;4328;48.622;9.230;2022-09-21T01:37:40;4.03;;;2.80;;
8580;SDS011;4328;48.622;9.230;2022-09-21T01:40:10;2.80;;;2.60;;
8580;SDS011;4328;48.622;9.230;2022-09-21T01:42:40;2.83;;;2.40;;
8580;SDS011;4328;48.622;9.230;2022-09-21T01:45:11;3.00;;;2.80;;
8580;SDS011;4328;48.622;9.230;2022-09-21T01:47:41;2.93;;;2.63;;
8580;SDS011;4328;48.622;9.230;2022-09-21T01:50:11;2.50;;;2.40;;
8580;SDS011;4328;48.622;9.230;2022-09-21T01:52:41;2.70;;;2.50;;
8580;SDS011;4328;48.622;9.230;2022-09-21T01:55:11;4.30;;;2.43;;
8580;SDS011;4328;48.622;9.230;2022-09-21T01:57:43;2.27;;;2.13;;
8580;SDS011;4328;48.622;9.230;2022-09-21T02:00:17;3.33;;;2.50;;
8580;SDS011;4328;48.622;9.230;2022-09-21T02:02:46;2.63;;;2.40;;
8580;SDS011;4328;48.622;9.230;2022-09-21T02:05:16;2.70;;;2.50;;
8580;SDS011;4328;48.622;9.230;2022-09-21T02:07:45;2.90;;;2.23;;
8580;SDS011;4328;48.622;9.230;2022-09-21T02:10:15;2.50;;;2.30;;
8580;SDS011;4328;48.622;9.230;2022-09-21T02:12:45;2.70;;;2.50;;
8580;SDS011;4328;48.622;9.230;2022-09-21T02:15:13;2.70;;;2.50;;
8580;SDS011;4328;48.622;9.230;2022-09-21T02:17:43;2.47;;;2.27;;
8580;SDS011;4328;48.622;9.230;2022-09-21T02:20:22;3.27;;;2.37;;
8580;SDS011;4328;48.622;9.230;2022-09-21T02:22:56;3.40;;;2.40;;
8580;SDS011;4328;48.622;9.230;2022-09-21T02:25:30;3.03;;;2.37;;
8580;SDS011;4328;48.622;9.230;2022-09-21T02:28:07;2.60;;;2.40;;
8580;SDS011;4328;48.622;9.230;2022-09-21T02:30:45;4.27;;;2.80;;
8580;SDS011;4328;48.622;9.230;2022-09-21T02:33:21;2.70;;;2.50;;
8580;SDS011;4328;48.622;9.230;2022-09-21T02:35:57;3.73;;;2.43;;
8580;SDS011;4328;48.622;9.230;2022-09-21T02:38:31;4.10;;;2.70;;
8580;SDS011;4328;48.622;9.230;2022-09-21T02:41:03;4.23;;;2.70;;
8580;SDS011;4328;48.622;9.230;2022-09-21T02:43:38;2.50;;;2.30;;
8580;SDS011;4328;48.622;9.230;2022-09-21T02:46:09;6.33;;;2.40;;
8580;SDS011;4328;48.622;9.230;2022-09-21T02:48:42;5.20;;;2.53;;
8580;SDS011;4328;48.622;9.230;2022-09-21T02:51:12;2.20;;;2.10;;
8580;SDS011;4328;48.622;9.230;2022-09-21T02:53:41;4.13;;;2.30;;
8580;SDS011;4328;48.622;9.230;2022-09-21T02:56:09;2.57;;;2.33;;
8580;SDS011;4328;48.622;9.230;2022-09-21T02:58:40;4.50;;;2.50;;
8580;SDS011;4328;48.622;9.230;2022-09-21T03:01:10;4.37;;;2.47;;
8580;SDS011;4328;48.622;9.230;2022-09-21T03:03:41;4.37;;;3.50;;
8580;SDS011;4328;48.622;9.230;2022-09-21T03:06:07;3.47;;;2.73;;
8580;SDS011;4328;48.622;9.230;2022-09-21T03:08:34;4.13;;;2.87;;
8580;SDS011;4328;48.622;9.230;2022-09-21T03:11:01;2.80;;;2.50;;
8580;SDS011;4328;48.622;9.230;2022-09-21T03:13:28;3.87;;;2.50;;
8580;SDS011;4328;48.622;9.230;2022-09-21T03:15:58;2.73;;;2.53;;
8580;SDS011;4328;48.622;9.230;2022-09-21T03:18:26;3.13;;;2.67;;
8580;SDS011;4328;48.622;9.230;2022-09-21T03:20:54;2.80;;;2.23;;
8580;SDS011;4328;48.622;9.230;2022-09-21T03:23:21;2.77;;;2.57;;
8580;SDS011;4328;48.622;9.230;2022-09-21T03:25:48;6.50;;;2.40;;
8580;SDS011;4328;48.622;9.230;2022-09-21T03:28:16;5.03;;;2.47;;
8580;SDS011;4328;48.622;9.230;2022-09-21T03:30:44;6.40;;;2.47;;
8580;SDS011;4328;48.622;9.230;2022-09-21T03:33:11;2.50;;;2.27;;
8580;SDS011;4328;48.622;9.230;2022-09-21T03:35:38;4.13;;;2.67;;
8580;SDS011;4328;48.622;9.230;2022-09-21T03:38:06;3.40;;;2.83;;
8580;SDS011;4328;48.622;9.230;2022-09-21T03:40:33;4.03;;;2.50;;
8580;SDS011;4328;48.622;9.230;2022-09-21T03:43:00;5.17;;;2.37;;
8580;SDS011;4328;48.622;9.230;2022-09-21T03:45:27;3.40;;;2.70;;
8580;SDS011;4328;48.622;9.230;2022-09-21T03:47:54;3.53;;;2.50;;
8580;SDS011;4328;48.622;9.230;2022-09-21T03:50:22;4.30;;;2.30;;
8580;SDS011;4328;48.622;9.230;2022-09-21T03:52:49;5.13;;;2.80;;
8580;SDS011;4328;48.622;9.230;2022-09-21T03:55:17;3.47;;;2.33;;
8580;SDS011;4328;48.622;9.230;2022-09-21T03:57:44;5.83;;;2.70;;
8580;SDS011;4328;48.622;9.230;2022-09-21T04:00:11;2.50;;;2.30;;
8580;SDS011;4328;48.622;9.230;2022-09-21T04:02:38;3.70;;;2.20;;
8580;SDS011;4328;48.622;9.230;2022-09-21T04:05:05;2.60;;;2.40;;
8580;SDS011;4328;48.622;9.230;2022-09-21T04:07:33;4.03;;;2.43;;
8580;SDS011;4328;48.622;9.230;2022-09-21T04:10:00;2.50;;;2.27;;
8580;SDS011;4328;48.622;9.230;2022-09-21T04:12:28;3.70;;;2.73;;
8580;SDS011;4328;48.622;9.230;2022-09-21T04:14:56;3.13;;;2.80;;
8580;SDS011;4328;48.622;9.230;2022-09-21T04:17:22;2.90;;;2.60;;
8580;SDS011;4328;48.622;9.230;2022-09-21T04:19:49;2.87;;;2.40;;
8580;SDS011;4328;48.622;9.230;2022-09-21T04:22:16;2.57;;;2.37;;
8580;SDS011;4328;48.622;9.230;2022-09-21T04:24:42;5.60;;;2.57;;
8580;SDS011;4328;48.622;9.230;2022-09-21T04:27:09;3.53;;;2.30;;
8580;SDS011;4328;48.622;9.230;2022-09-21T04:29:38;2.60;;;2.40;;
8580;SDS011;4328;48.622;9.230;2022-09-21T04:32:04;5.00;;;2.77;;
8580;SDS011;4328;48.622;9.230;2022-09-21T04:34:31;4.37;;;2.33;;
8580;SDS011;4328;48.622;9.230;2022-09-21T04:36:58;3.00;;;2.60;;
8580;SDS011;4328;48.622;9.230;2022-09-21T04:39:25;5.13;;;2.40;;
8580;SDS011;4328;48.622;9.230;2022-09-21T04:41:51;4.40;;;2.83;;
8580;SDS011;4328;48.622;9.230;2022-09-21T04:44:18;3.27;;;2.50;;
8580;SDS011;4328;48.622;9.230;2022-09-21T04:46:46;3.13;;;2.80;;
8580;SDS011;4328;48.622;9.230;2022-09-21T04:49:13;2.93;;;2.50;;
8580;SDS011;4328;48.622;9.230;2022-09-21T04:51:40;2.80;;;2.60;;
8580;SDS011;4328;48.622;9.230;2022-09-21T04:54:06;2.77;;;2.57;;
8580;SDS011;4328;48.622;9.230;2022-09-21T04:56:33;2.40;;;2.20;;
8580;SDS011;4328;48.622;9.230;2022-09-21T04:58:59;3.63;;;2.63;;
8580;SDS011;4328;48.622;9.230;2022-09-21T05:01:26;7.03;;;2.73;;
8580;SDS011;4328;48.622;9.230;2022-09-21T05:03:54;3.00;;;2.70;;
8580;SDS011;4328;48.622;9.230;2022-09-21T05:06:25;4.20;;;2.57;;
8580;SDS011;4328;48.622;9.230;2022-09-21T05:08:52;2.97;;;2.53;;
8580;SDS011;4328;48.622;9.230;2022-09-21T05:11:36;3.40;;;2.83;;
8580;SDS011;4328;48.622;9.230;2022-09-21T05:14:03;3.43;;;3.10;;
8580;SDS011;4328;48.622;9.230;2022-09-21T05:16:30;3.53;;;3.23;;
8580;SDS011;4328;48.622;9.230;2022-09-21T05:18:58;3.47;;;3.03;;
8580;SDS011;4328;48.622;9.230;2022-09-21T05:21:24;5.63;;;3.20;;
8580;SDS011;4328;48.622;9.230;2022-09-21T05:23:51;5.93;;;3.40;;
8580;SDS011;4328;48.622;9.230;2022-09-21T05:26:18;4.50;;;3.00;;
8580;SDS011;4328;48.622;9.230;2022-09-21T05:28:45;4.60;;;3.30;;
8580;SDS011;4328;48.622;9.230;2022-09-21T05:34:03;4.90;;;3.60;;
8580;SDS011;4328;48.622;9.230;2022-09-21T05:36:38;7.13;;;3.37;;
8580;SDS011;4328;48.622;9.230;2022-09-21T05:39:11;6.07;;;3.67;;
8580;SDS011;4328;48.622;9.230;2022-09-21T05:41:39;4.97;;;3.73;;
8580;SDS011;4328;48.622;9.230;2022-09-21T05:44:08;6.60;;;3.70;;
8580;SDS011;4328;48.622;9.230;2022-09-21T05:46:38;5.60;;;3.80;;
8580;SDS011;4328;48.622;9.230;2022-09-21T05:49:16;4.77;;;3.73;;
8580;SDS011;4328;48.622;9.230;2022-09-21T05:51:49;10.00;;;4.17;;
8580;SDS011;4328;48.622;9.230;2022-09-21T05:54:25;5.17;;;3.90;;
8580;SDS011;4328;48.622;9.230;2022-09-21T05:57:03;4.17;;;3.33;;
8580;SDS011;4328;48.622;9.230;2022-09-21T05:59:40;4.50;;;3.87;;
8580;SDS011;4328;48.622;9.230;2022-09-21T06:02:15;5.10;;;3.73;;
8580;SDS011;4328;48.622;9.230;2022-09-21T06:04:52;5.00;;;3.77;;
8580;SDS011;4328;48.622;9.230;2022-09-21T06:07:21;4.60;;;3.87;;
8580;SDS011;4328;48.622;9.230;2022-09-21T06:09:48;9.13;;;3.83;;
8580;SDS011;4328;48.622;9.230;2022-09-21T06:12:14;4.53;;;4.00;;
8580;SDS011;4328;48.622;9.230;2022-09-21T06:14:41;3.87;;;3.57;;
8580;SDS011;4328;48.622;9.230;2022-09-21T06:17:08;5.67;;;3.70;;
8580;SDS011;4328;48.622;9.230;2022-09-21T06:19:35;5.37;;;3.73;;
8580;SDS011;4328;48.622;9.230;2022-09-21T06:22:03;5.37;;;3.60;;
8580;SDS011;4328;48.622;9.230;2022-09-21T06:24:29;5.50;;;3.53;;
8580;SDS011;4328;48.622;9.230;2022-09-21T06:26:56;4.40;;;3.80;;
8580;SDS011;4328;48.622;9.230;2022-09-21T06:29:22;9.37;;;3.40;;
8580;SDS011;4328;48.622;9.230;2022-09-21T06:31:49;6.40;;;3.10;;
8580;SDS011;4328;48.622;9.230;2022-09-21T06:34:16;5.00;;;3.70;;
8580;SDS011;4328;48.622;9.230;2022-09-21T06:36:43;5.13;;;3.73;;
8580;SDS011;4328;48.622;9.230;2022-09-21T06:39:11;4.57;;;3.30;;
8580;SDS011;4328;48.622;9.230;2022-09-21T06:41:38;5.47;;;3.50;;
8580;SDS011;4328;48.622;9.230;2022-09-21T06:44:05;3.70;;;3.27;;
8580;SDS011;4328;48.622;9.230;2022-09-21T06:46:31;4.00;;;3.60;;
8580;SDS011;4328;48.622;9.230;2022-09-21T06:48:58;4.57;;;3.30;;
8580;SDS011;4328;48.622;9.230;2022-09-21T06:51:25;3.80;;;3.50;;
8580;SDS011;4328;48.622;9.230;2022-09-21T06:53:53;3.60;;;3.30;;
8580;SDS011;4328;48.622;9.230;2022-09-21T06:56:21;3.40;;;3.10;;
8580;SDS011;4328;48.622;9.230;2022-09-21T06:58:48;4.53;;;3.73;;
8580;SDS011;4328;48.622;9.230;2022-09-21T07:01:16;4.63;;;4.03;;
8580;SDS011;4328;48.622;9.230;2022-09-21T07:03:44;8.30;;;4.93;;
8580;SDS011;4328;48.622;9.230;2022-09-21T07:06:13;5.00;;;4.10;;
8580;SDS011;4328;48.622;9.230;2022-09-21T07:08:40;6.77;;;4.30;;
8580;SDS011;4328;48.622;9.230;2022-09-21T07:11:08;5.30;;;4.80;;
8580;SDS011;4328;48.622;9.230;2022-09-21T07:13:36;5.97;;;4.80;;
8580;SDS011;4328;48.622;9.230;2022-09-21T07:16:03;5.33;;;4.70;;
8580;SDS011;4328;48.622;9.230;2022-09-21T07:18:31;6.17;;;5.53;;
8580;SDS011;4328;48.622;9.230;2022-09-21T07:20:57;6.33;;;5.33;;
8580;SDS011;4328;48.622;9.230;2022-09-21T07:23:27;7.13;;;5.63;;
8580;SDS011;4328;48.622;9.230;2022-09-21T07:25:54;5.87;;;5.20;;
8580;SDS011;4328;48.622;9.230;2022-09-21T07:28:21;7.33;;;5.23;;
8580;SDS011;4328;48.622;9.230;2022-09-21T07:30:49;8.57;;;6.10;;
8580;SDS011;4328;48.622;9.230;2022-09-21T07:33:15;7.27;;;5.00;;
8580;SDS011;4328;48.622;9.230;2022-09-21T07:35:48;9.27;;;5.97;;
8580;SDS011;4328;48.622;9.230;2022-09-21T07:38:16;8.40;;;5.67;;
8580;SDS011;4328;48.622;9.230;2022-09-21T07:40:43;6.37;;;5.33;;
8580;SDS011;4328;48.622;9.230;2022-09-21T07:43:09;5.83;;;5.13;;
8580;SDS011;4328;48.622;9.230;2022-09-21T07:45:36;8.67;;;5.73;;
8580;SDS011;4328;48.622;9.230;2022-09-21T07:48:04;6.70;;;5.80;;
8580;SDS011;4328;48.622;9.230;2022-09-21T07:50:32;10.53;;;6.37;;
8580;SDS011;4328;48.622;9.230;2022-09-21T07:52:59;9.07;;;5.97;;
8580;SDS011;4328;48.622;9.230;2022-09-21T07:55:27;8.37;;;6.57;;
8580;SDS011;4328;48.622;9.230;2022-09-21T07:57:54;6.70;;;6.10;;
8580;SDS011;4328;48.622;9.230;2022-09-21T08:00:38;7.00;;;6.30;;
8580;SDS011;4328;48.622;9.230;2022-09-21T08:03:06;8.00;;;6.77;;
8580;SDS011;4328;48.622;9.230;2022-09-21T08:05:33;10.23;;;7.10;;
8580;SDS011;4328;48.622;9.230;2022-09-21T08:08:00;12.37;;;7.30;;
8580;SDS011;4328;48.622;9.230;2022-09-21T08:10:26;9.10;;;7.30;;
8580;SDS011;4328;48.622;9.230;2022-09-21T08:12:54;8.10;;;6.70;;
8580;SDS011;4328;48.622;9.230;2022-09-21T08:15:21;9.60;;;7.03;;
8580;SDS011;4328;48.622;9.230;2022-09-21T08:17:48;9.23;;;6.80;;
8580;SDS011;4328;48.622;9.230;2022-09-21T08:20:17;6.47;;;5.53;;
8580;SDS011;4328;48.622;9.230;2022-09-21T08:22:44;5.93;;;5.33;;
8580;SDS011;4328;48.622;9.230;2022-09-21T08:25:10;5.30;;;4.80;;
8580;SDS011;4328;48.622;9.230;2022-09-21T08:27:37;7.53;;;5.13;;
8580;SDS011;4328;48.622;9.230;2022-09-21T08:30:05;5.47;;;4.33;;
8580;SDS011;4328;48.622;9.230;2022-09-21T08:32:32;4.23;;;3.83;;
8580;SDS011;4328;48.622;9.230;2022-09-21T08:34:59;6.87;;;4.43;;
8580;SDS011;4328;48.622;9.230;2022-09-21T08:37:27;4.17;;;3.77;;
8580;SDS011;4328;48.622;9.230;2022-09-21T08:39:55;4.53;;;4.00;;
8580;SDS011;4328;48.622;9.230;2022-09-21T08:42:30;5.73;;;4.63;;
8580;SDS011;4328;48.622;9.230;2022-09-21T08:45:05;4.20;;;3.80;;
8580;SDS011;4328;48.622;9.230;2022-09-21T08:47:38;7.17;;;4.50;;
8580;SDS011;4328;48.622;9.230;2022-09-21T08:50:11;4.90;;;4.50;;
8580;SDS011;4328;48.622;9.230;2022-09-21T08:52:50;6.33;;;4.13;;
8580;SDS011;4328;48.622;9.230;2022-09-21T08:55:22;3.90;;;3.33;;
8580;SDS011;4328;48.622;9.230;2022-09-21T08:57:49;4.03;;;3.40;;
8580;SDS011;4328;48.622;9.230;2022-09-21T09:00:16;3.93;;;3.43;;
8580;SDS011;4328;48.622;9.230;2022-09-21T09:02:49;3.33;;;2.90;;
8580;SDS011;4328;48.622;9.230;2022-09-21T09:05:33;3.50;;;2.60;;
8580;SDS011;4328;48.622;9.230;2022-09-21T09:08:20;2.50;;;2.30;;
8580;SDS011;4328;48.622;9.230;2022-09-21T09:11:04;2.63;;;2.42;;
8580;SDS011;4328;48.622;9.230;2022-09-21T09:13:53;2.08;;;1.75;;
8580;SDS011;4328;48.622;9.230;2022-09-21T09:16:35;3.95;;;1.52;;
8580;SDS011;4328;48.622;9.230;2022-09-21T09:19:17;2.15;;;1.77;;
8580;SDS011;4328;48.622;9.230;2022-09-21T09:21:48;1.70;;;1.38;;
8580;SDS011;4328;48.622;9.230;2022-09-21T09:24:17;1.50;;;1.40;;
8580;SDS011;4328;48.622;9.230;2022-09-21T09:26:52;2.15;;;1.30;;
8580;SDS011;4328;48.622;9.230;2022-09-21T09:29:26;5.35;;;4.68;;
8580;SDS011;4328;48.622;9.230;2022-09-21T09:31:59;1.73;;;1.50;;
8580;SDS011;4328;48.622;9.230;2022-09-21T09:34:27;2.58;;;1.30;;
8580;SDS011;4328;48.622;9.230;2022-09-21T09:36:58;2.08;;;1.55;;
8580;SDS011;4328;48.622;9.230;2022-09-21T09:39:28;2.25;;;1.35;;
8580;SDS011;4328;48.622;9.230;2022-09-21T09:41:59;1.30;;;1.20;;
8580;SDS011;4328;48.622;9.230;2022-09-21T09:44:40;1.75;;;1.25;;
8580;SDS011;4328;48.622;9.230;2022-09-21T09:47:23;1.67;;;1.10;;
8580;SDS011;4328;48.622;9.230;2022-09-21T09:50:00;3.20;;;1.27;;
8580;SDS011;4328;48.622;9.230;2022-09-21T09:52:32;2.15;;;1.00;;
8580;SDS011;4328;48.622;9.230;2022-09-21T09:55:00;1.83;;;1.10;;
8580;SDS011;4328;48.622;9.230;2022-09-21T09:57:41;1.85;;;1.10;;
8580;SDS011;4328;48.622;9.230;2022-09-21T10:00:11;2.35;;;0.90;;
8580;SDS011;4328;48.622;9.230;2022-09-21T10:02:44;1.65;;;1.05;;
8580;SDS011;4328;48.622;9.230;2022-09-21T10:05:17;0.93;;;0.80;;
8580;SDS011;4328;48.622;9.230;2022-09-21T10:07:46;1.55;;;0.90;;
8580;SDS011;4328;48.622;9.230;2022-09-21T10:13:10;0.80;;;0.80;;
8580;SDS011;4328;48.622;9.230;2022-09-21T10:15:40;1.42;;;1.00;;
8580;SDS011;4328;48.622;9.230;2022-09-21T10:18:14;1.10;;;1.00;;
8580;SDS011;4328;48.622;9.230;2022-09-21T10:20:51;1.48;;;1.17;;
8580;SDS011;4328;48.622;9.230;2022-09-21T10:23:20;1.58;;;1.38;;
8580;SDS011;4328;48.622;9.230;2022-09-21T10:25:53;1.40;;;1.05;;
8580;SDS011;4328;48.622;9.230;2022-09-21T10:28:22;2.35;;;1.40;;
8580;SDS011;4328;48.622;9.230;2022-09-21T10:30:49;1.50;;;1.40;;
8580;SDS011;4328;48.622;9.230;2022-09-21T10:33:32;1.73;;;1.10;;
8580;SDS011;4328;48.622;9.230;2022-09-21T10:36:08;1.98;;;1.30;;
8580;SDS011;4328;48.622;9.230;2022-09-21T10:38:51;1.98;;;1.20;;
8580;SDS011;4328;48.622;9.230;2022-09-21T10:41:20;2.25;;;1.27;;
8580;SDS011;4328;48.622;9.230;2022-09-21T10:43:47;1.75;;;1.20;;
8580;SDS011;4328;48.622;9.230;2022-09-21T10:46:15;2.55;;;1.92;;
8580;SDS011;4328;48.622;9.230;2022-09-21T10:48:43;1.15;;;0.70;;
8580;SDS011;4328;48.622;9.230;2022-09-21T10:51:19;0.90;;;0.75;;
8580;SDS011;4328;48.622;9.230;2022-09-21T10:53:53;1.17;;;0.90;;
8580;SDS011;4328;48.622;9.230;2022-09-21T10:56:21;0.88;;;0.70;;
8580;SDS011;4328;48.622;9.230;2022-09-21T11:01:41;1.02;;;0.60;;
8580;SDS011;4328;48.622;9.230;2022-09-21T11:04:11;1.60;;;0.70;;
8580;SDS011;4328;48.622;9.230;2022-09-21T11:06:42;1.48;;;0.90;;
8580;SDS011;4328;48.622;9.230;2022-09-21T11:09:12;0.90;;;0.77;;
8580;SDS011;4328;48.622;9.230;2022-09-21T11:11:48;1.83;;;0.55;;
8580;SDS011;4328;48.622;9.230;2022-09-21T11:14:33;1.05;;;0.85;;
8580;SDS011;4328;48.622;9.230;2022-09-21T11:17:08;0.85;;;0.60;;
8580;SDS011;4328;48.622;9.230;2022-09-21T11:19:47;0.85;;;0.60;;
8580;SDS011;4328;48.622;9.230;2022-09-21T11:22:18;0.73;;;0.50;;
8580;SDS011;4328;48.622;9.230;2022-09-21T11:24:51;1.27;;;0.60;;
8580;SDS011;4328;48.622;9.230;2022-09-21T11:27:27;0.88;;;0.70;;
8580;SDS011;4328;48.622;9.230;2022-09-21T11:30:03;0.57;;;0.50;;
8580;SDS011;4328;48.622;9.230;2022-09-21T11:32:39;0.70;;;0.47;;
8580;SDS011;4328;48.622;9.230;2022-09-21T11:35:25;2.25;;;0.70;;
8580;SDS011;4328;48.622;9.230;2022-09-21T11:38:11;1.38;;;0.80;;
8580;SDS011;4328;48.622;9.230;2022-09-21T11:40:51;1.58;;;0.60;;
8580;SDS011;4328;48.622;9.230;2022-09-21T11:43:37;0.60;;;0.50;;
8580;SDS011;4328;48.622;9.230;2022-09-21T11:46:19;0.68;;;0.50;;
8580;SDS011;4328;48.622;9.230;2022-09-21T11:48:54;1.20;;;0.50;;
8580;SDS011;4328;48.622;9.230;2022-09-21T11:51:39;1.08;;;0.50;;
8580;SDS011;4328;48.622;9.230;2022-09-21T11:54:41;0.57;;;0.50;;
8580;SDS011;4328;48.622;9.230;2022-09-21T11:57:22;1.45;;;0.50;;
8580;SDS011;4328;48.622;9.230;2022-09-21T12:02:53;0.70;;;0.50;;
8580;SDS011;4328;48.622;9.230;2022-09-21T12:05:42;1.02;;;0.70;;
8580;SDS011;4328;48.622;9.230;2022-09-21T12:08:28;0.85;;;0.40;;
8580;SDS011;4328;48.622;9.230;2022-09-21T12:11:10;0.70;;;0.50;;
8580;SDS011;4328;48.622;9.230;2022-09-21T12:13:48;1.73;;;0.60;;
8580;SDS011;4328;48.622;9.230;2022-09-21T12:16:24;0.40;;;0.40;;
8580;SDS011;4328;48.622;9.230;2022-09-21T12:18:59;1.00;;;0.70;;
8580;SDS011;4328;48.622;9.230;2022-09-21T12:21:32;1.05;;;0.77;;
8580;SDS011;4328;48.622;9.230;2022-09-21T12:24:03;1.42;;;0.60;;
8580;SDS011;4328;48.622;9.230;2022-09-21T12:26:38;0.50;;;0.50;;
8580;SDS011;4328;48.622;9.230;2022-09-21T12:29:11;0.88;;;0.65;;
8580;SDS011;4328;48.622;9.230;2022-09-21T12:31:46;0.55;;;0.55;;
8580;SDS011;4328;48.622;9.230;2022-09-21T12:34:20;1.00;;;0.73;;
8580;SDS011;4328;48.622;9.230;2022-09-21T12:36:52;0.98;;;0.52;;
8580;SDS011;4328;48.622;9.230;2022-09-21T12:39:27;1.35;;;0.98;;
8580;SDS011;4328;48.622;9.230;2022-09-21T12:42:01;0.40;;;0.40;;
8580;SDS011;4328;48.622;9.230;2022-09-21T12:44:35;0.73;;;0.60;;
8580;SDS011;4328;48.622;9.230;2022-09-21T12:47:19;0.65;;;0.50;;
8580;SDS011;4328;48.622;9.230;2022-09-21T12:49:51;1.10;;;0.90;;
8580;SDS011;4328;48.622;9.230;2022-09-21T12:52:23;1.45;;;0.60;;
8580;SDS011;4328;48.622;9.230;2022-09-21T12:54:53;0.83;;;0.50;;
8580;SDS011;4328;48.622;9.230;2022-09-21T12:57:28;0.90;;;0.80;;
8580;SDS011;4328;48.622;9.230;2022-09-21T13:00:04;1.03;;;0.73;;
8580;SDS011;4328;48.622;9.230;2022-09-21T13:02:38;0.50;;;0.50;;
8580;SDS011;4328;48.622;9.230;2022-09-21T13:05:10;1.02;;;0.70;;
8580;SDS011;4328;48.622;9.230;2022-09-21T13:07:56;1.42;;;0.60;;
8580;SDS011;4328;48.622;9.230;2022-09-21T13:10:31;0.63;;;0.50;;
8580;SDS011;4328;48.622;9.230;2022-09-21T13:16:00;0.57;;;0.57;;
8580;SDS011;4328;48.622;9.230;2022-09-21T13:18:31;0.50;;;0.50;;
8580;SDS011;4328;48.622;9.230;2022-09-21T13:20:59;0.70;;;0.63;;
8580;SDS011;4328;48.622;9.230;2022-09-21T13:23:33;1.10;;;0.68;;
8580;SDS011;4328;48.622;9.230;2022-09-21T13:26:06;1.63;;;0.45;;
8580;SDS011;4328;48.622;9.230;2022-09-21T13:28:41;1.20;;;0.90;;
8580;SDS011;4328;48.622;9.230;2022-09-21T13:31:28;0.95;;;0.40;;
8580;SDS011;4328;48.622;9.230;2022-09-21T13:34:06;0.50;;;0.50;;
8580;SDS011;4328;48.622;9.230;2022-09-21T13:43:14;0.80;;;0.60;;
8580;SDS011;4328;48.622;9.230;2022-09-21T13:45:48;0.52;;;0.52;;
8580;SDS011;4328;48.622;9.230;2022-09-21T13:48:25;0.60;;;0.60;;
8580;SDS011;4328;48.622;9.230;2022-09-21T13:50:59;0.60;;;0.60;;
8580;SDS011;4328;48.622;9.230;2022-09-21T13:53:33;0.68;;;0.50;;
8580;SDS011;4328;48.622;9.230;2022-09-21T13:56:05;0.60;;;0.60;;
8580;SDS011;4328;48.622;9.230;2022-09-21T13:58:38;1.70;;;0.60;;
8580;SDS011;4328;48.622;9.230;2022-09-21T14:01:11;0.57;;;0.57;;
8580;SDS011;4328;48.622;9.230;2022-09-21T14:03:41;0.63;;;0.63;;
8580;SDS011;4328;48.622;9.230;2022-09-21T14:06:13;0.57;;;0.50;;
8580;SDS011;4328;48.622;9.230;2022-09-21T14:08:46;0.63;;;0.60;;
8580;SDS011;4328;48.622;9.230;2022-09-21T14:11:20;1.17;;;0.70;;
8580;SDS011;4328;48.622;9.230;2022-09-21T14:14:00;1.30;;;0.70;;
8580;SDS011;4328;48.622;9.230;2022-09-21T14:22:36;0.60;;;0.60;;
8580;SDS011;4328;48.622;9.230;2022-09-21T14:25:27;0.60;;;0.60;;
8580;SDS011;4328;48.622;9.230;2022-09-21T14:27:59;0.80;;;0.80;;
8580;SDS011;4328;48.622;9.230;2022-09-21T14:30:31;0.70;;;0.70;;
8580;SDS011;4328;48.622;9.230;2022-09-21T14:33:03;1.42;;;0.57;;
8580;SDS011;4328;48.622;9.230;2022-09-21T14:35:36;0.60;;;0.60;;
8580;SDS011;4328;48.622;9.230;2022-09-21T14:38:12;0.50;;;0.50;;
8580;SDS011;4328;48.622;9.230;2022-09-21T14:40:44;0.50;;;0.50;;
8580;SDS011;4328;48.622;9.230;2022-09-21T14:43:15;0.70;;;0.60;;
8580;SDS011;4328;48.622;9.230;2022-09-21T14:45:49;0.67;;;0.60;;
8580;SDS011;4328;48.622;9.230;2022-09-21T14:48:31;0.60;;;0.60;;
8580;SDS011;4328;48.622;9.230;2022-09-21T14:51:05;0.93;;;0.70;;
8580;SDS011;4328;48.622;9.230;2022-09-21T14:53:53;0.93;;;0.67;;
8580;SDS011;4328;48.622;9.230;2022-09-21T14:56:30;1.37;;;0.70;;
8580;SDS011;4328;48.622;9.230;2022-09-21T14:59:15;1.40;;;0.70;;
8580;SDS011;4328;48.622;9.230;2022-09-21T15:01:55;1.03;;;0.83;;
8580;SDS011;4328;48.622;9.230;2022-09-21T15:04:28;0.70;;;0.70;;
8580;SDS011;4328;48.622;9.230;2022-09-21T15:10:23;0.60;;;0.60;;
8580;SDS011;4328;48.622;9.230;2022-09-21T15:13:13;0.70;;;0.70;;
8580;SDS011;4328;48.622;9.230;2022-09-21T15:15:47;1.47;;;0.70;;
8580;SDS011;4328;48.622;9.230;2022-09-21T15:18:32;0.70;;;0.60;;
8580;SDS011;4328;48.622;9.230;2022-09-21T15:21:17;0.70;;;0.70;;
8580;SDS011;4328;48.622;9.230;2022-09-21T15:23:48;0.70;;;0.70;;
8580;SDS011;4328;48.622;9.230;2022-09-21T15:26:19;0.80;;;0.80;;
8580;SDS011;4328;48.622;9.230;2022-09-21T15:28:52;0.70;;;0.70;;
8580;SDS011;4328;48.622;9.230;2022-09-21T15:31:21;0.67;;;0.67;;
8580;SDS011;4328;48.622;9.230;2022-09-21T15:33:48;0.73;;;0.73;;
8580;SDS011;4328;48.622;9.230;2022-09-21T15:36:20;2.23;;;0.67;;
8580;SDS011;4328;48.622;9.230;2022-09-21T15:38:50;1.67;;;0.80;;
8580;SDS011;4328;48.622;9.230;2022-09-21T15:44:13;0.97;;;0.97;;
8580;SDS011;4328;48.622;9.230;2022-09-21T15:46:42;0.80;;;0.80;;
8580;SDS011;4328;48.622;9.230;2022-09-21T15:49:12;1.97;;;0.90;;
8580;SDS011;4328;48.622;9.230;2022-09-21T15:51:45;0.70;;;0.70;;
8580;SDS011;4328;48.622;9.230;2022-09-21T15:54:21;0.70;;;0.70;;
8580;SDS011;4328;48.622;9.230;2022-09-21T15:56:57;1.17;;;1.10;;
8580;SDS011;4328;48.622;9.230;2022-09-21T15:59:25;0.77;;;0.77;;
8580;SDS011;4328;48.622;9.230;2022-09-21T16:01:53;1.03;;;0.90;;
8580;SDS011;4328;48.622;9.230;2022-09-21T16:04:23;1.67;;;1.00;;
8580;SDS011;4328;48.622;9.230;2022-09-21T16:06:58;1.40;;;1.00;;
8580;SDS011;4328;48.622;9.230;2022-09-21T16:09:35;1.20;;;1.20;;
8580;SDS011;4328;48.622;9.230;2022-09-21T16:15:16;1.43;;;1.13;;
8580;SDS011;4328;48.622;9.230;2022-09-21T16:17:57;1.70;;;0.90;;
8580;SDS011;4328;48.622;9.230;2022-09-21T16:20:37;0.80;;;0.80;;